Talisheek, Louisiana
Current Conditions -  °F | °C
As of 9:53 PM on Tuesday 27 Jan 2015 (Local Time) from KASD Reporting Station
Clear Clear  
Wind Chill: 43°   Ceiling: Unl
Heat Index: 46°   Visibility: 10mi
Dew Point: 42°   Wind: 6mph
Humidity: 86%   Direction: 10°N
Pressure: 30.15"   Gusts: NA
Location:  30.53°N, 89.88°W
Report Text: KASD 280353Z AUTO 01005KT 10SM CLR 08/06 A3015 RMK AO2 SLP209 T00780056
Loading
Personal Weather Stations






























Interactive Weather Map New forecast layout! Learn more

10-Day Weather Forecast

Advertisements
Track Severe Weather on mobile